Main page


Airports :

Barcelona, Spain

Barcelona–El Prat Airport

latitude: 41-17N, longitude: 002-04E, elevation: 4 m

Current weather observation

The report was made 25 minutes ago, at 11:30 UTC
Wind 12 kt from the South/Southwest
Temperature 12°C
Humidity 35%
Pressure 1018 hPa
Visibility 10 km or more
no clouds below 1500 m and no cumulonimbus

METAR: LEBL 221130Z 21012KT CAVOK 12/M03 Q1018 NOSIG

Time: 12:55 (11:55 UTC)


The report was made 55 minutes ago, at 11:00 UTC
Forecast valid from 22 at 12 UTC to 23 at 12 UTC
Wind 14 kt from the Southwest
Visibility 10 km or more
Few clouds at a height of 2500 ft
from 22 at 12 UTC to 22 at 17 UTC
Wind 15 kt from the Southwest with gusts up to 25 kt
from 22 at 18 UTC to 22 at 20 UTC
Wind 9 kt from the North/Northwest
from 23 at 09 UTC to 23 at 11 UTC
Wind 9 kt from the Southeast

TAF: LEBL 221100Z 2212/2312 22014KT 9999 FEW025 TX16/2213Z TN06/2306Z TEMPO 2212/2217 22015G25KT BECMG 2218/2220 33009KT BECMG 2309/2311 14009KT

Weather observations and forecasts of more than 4000 airports (METAR and TAF reports).

The available stations are represented by yellow and red dots on the map.

Hover mouse over dot to see the name of the station.

Then click to see weather observations and forecasts.

To change the map : click on the green buttons with a black cross to zoom in, on the green button with a dash to zoom out, or on the green arrows for adjacent maps.